sensor_id;sensor_type;location;lat;lon;timestamp;pressure;altitude;pressure_sealevel;temperature;humidity
56374;BME280;58212;47.034;7.376;2023-09-12T00:00:49;95136.22;;;18.27;75.21
56374;BME280;58212;47.034;7.376;2023-09-12T00:03:18;95140.59;;;18.18;75.69
56374;BME280;58212;47.034;7.376;2023-09-12T00:05:53;95140.47;;;18.28;75.54
56374;BME280;58212;47.034;7.376;2023-09-12T00:08:22;95144.34;;;18.17;75.71
56374;BME280;58212;47.034;7.376;2023-09-12T00:10:59;95145.91;;;18.23;75.58
56374;BME280;58212;47.034;7.376;2023-09-12T00:13:25;95148.81;;;18.26;75.82
56374;BME280;58212;47.034;7.376;2023-09-12T00:15:52;95150.97;;;18.24;76.33
56374;BME280;58212;47.034;7.376;2023-09-12T00:18:22;95149.09;;;18.25;76.02
56374;BME280;58212;47.034;7.376;2023-09-12T00:20:49;95152.84;;;18.24;76.70
56374;BME280;58212;47.034;7.376;2023-09-12T00:23:17;95151.75;;;18.25;76.52
56374;BME280;58212;47.034;7.376;2023-09-12T00:25:44;95151.25;;;18.23;76.68
56374;BME280;58212;47.034;7.376;2023-09-12T00:28:11;95151.03;;;18.19;76.84
56374;BME280;58212;47.034;7.376;2023-09-12T00:30:37;95147.56;;;18.19;76.80
56374;BME280;58212;47.034;7.376;2023-09-12T00:33:04;95150.50;;;18.17;76.79
56374;BME280;58212;47.034;7.376;2023-09-12T00:35:32;95152.72;;;18.10;76.73
56374;BME280;58212;47.034;7.376;2023-09-12T00:37:59;95159.38;;;18.13;77.11
56374;BME280;58212;47.034;7.376;2023-09-12T00:40:26;95162.81;;;18.18;76.92
56374;BME280;58212;47.034;7.376;2023-09-12T00:42:52;95154.50;;;18.20;76.90
56374;BME280;58212;47.034;7.376;2023-09-12T00:45:19;95151.31;;;18.18;76.82
56374;BME280;58212;47.034;7.376;2023-09-12T00:47:46;95147.81;;;18.17;77.02
56374;BME280;58212;47.034;7.376;2023-09-12T00:50:14;95153.19;;;18.17;77.57
56374;BME280;58212;47.034;7.376;2023-09-12T00:52:44;95158.50;;;18.22;77.03
56374;BME280;58212;47.034;7.376;2023-09-12T00:55:11;95157.81;;;18.12;76.98
56374;BME280;58212;47.034;7.376;2023-09-12T00:57:39;95159.00;;;18.00;77.51
56374;BME280;58212;47.034;7.376;2023-09-12T01:00:07;95147.75;;;17.98;77.31
56374;BME280;58212;47.034;7.376;2023-09-12T01:02:39;95155.47;;;18.05;77.63
56374;BME280;58212;47.034;7.376;2023-09-12T01:05:07;95147.16;;;18.06;77.48
56374;BME280;58212;47.034;7.376;2023-09-12T01:07:34;95145.03;;;18.03;77.61
56374;BME280;58212;47.034;7.376;2023-09-12T01:10:04;95146.19;;;17.97;77.85
56374;BME280;58212;47.034;7.376;2023-09-12T01:12:31;95144.69;;;17.86;78.31
56374;BME280;58212;47.034;7.376;2023-09-12T01:14:58;95149.50;;;17.84;78.52
56374;BME280;58212;47.034;7.376;2023-09-12T01:17:25;95145.19;;;17.88;78.53
56374;BME280;58212;47.034;7.376;2023-09-12T01:19:52;95143.09;;;17.85;78.44
56374;BME280;58212;47.034;7.376;2023-09-12T01:22:52;95149.28;;;17.81;78.72
56374;BME280;58212;47.034;7.376;2023-09-12T01:25:50;95149.34;;;17.76;78.55
56374;BME280;58212;47.034;7.376;2023-09-12T01:28:23;95145.81;;;17.80;78.65
56374;BME280;58212;47.034;7.376;2023-09-12T01:30:51;95145.00;;;17.80;78.47
56374;BME280;58212;47.034;7.376;2023-09-12T01:33:19;95145.34;;;17.73;78.35
56374;BME280;58212;47.034;7.376;2023-09-12T01:35:46;95140.00;;;17.73;78.45
56374;BME280;58212;47.034;7.376;2023-09-12T01:38:13;95142.63;;;17.78;78.54
56374;BME280;58212;47.034;7.376;2023-09-12T01:40:43;95142.31;;;17.80;78.32
56374;BME280;58212;47.034;7.376;2023-09-12T01:43:11;95144.78;;;17.76;77.97
56374;BME280;58212;47.034;7.376;2023-09-12T01:45:44;95148.59;;;17.70;78.04
56374;BME280;58212;47.034;7.376;2023-09-12T01:48:19;95145.69;;;17.67;77.81
56374;BME280;58212;47.034;7.376;2023-09-12T01:50:47;95151.84;;;17.67;77.86
56374;BME280;58212;47.034;7.376;2023-09-12T01:53:15;95150.75;;;17.68;77.81
56374;BME280;58212;47.034;7.376;2023-09-12T01:55:43;95146.13;;;17.74;77.47
56374;BME280;58212;47.034;7.376;2023-09-12T01:58:11;95141.06;;;17.72;77.82
56374;BME280;58212;47.034;7.376;2023-09-12T02:00:45;95146.41;;;17.72;77.71
56374;BME280;58212;47.034;7.376;2023-09-12T02:03:12;95146.94;;;17.74;77.70
56374;BME280;58212;47.034;7.376;2023-09-12T02:05:39;95148.78;;;17.79;77.59
56374;BME280;58212;47.034;7.376;2023-09-12T02:08:07;95144.22;;;17.79;77.63
56374;BME280;58212;47.034;7.376;2023-09-12T02:10:34;95145.00;;;17.80;77.61
56374;BME280;58212;47.034;7.376;2023-09-12T02:13:00;95142.09;;;17.76;77.22
56374;BME280;58212;47.034;7.376;2023-09-12T02:15:27;95146.13;;;17.74;77.52
56374;BME280;58212;47.034;7.376;2023-09-12T02:17:55;95144.84;;;17.71;77.69
56374;BME280;58212;47.034;7.376;2023-09-12T02:20:22;95145.69;;;17.67;77.91
56374;BME280;58212;47.034;7.376;2023-09-12T02:22:49;95144.38;;;17.64;78.08
56374;BME280;58212;47.034;7.376;2023-09-12T02:25:17;95148.34;;;17.67;78.04
56374;BME280;58212;47.034;7.376;2023-09-12T02:27:45;95161.78;;;17.62;78.09
56374;BME280;58212;47.034;7.376;2023-09-12T02:30:12;95156.66;;;17.65;77.80
56374;BME280;58212;47.034;7.376;2023-09-12T02:32:42;95159.09;;;17.62;78.11
56374;BME280;58212;47.034;7.376;2023-09-12T02:35:10;95155.81;;;17.70;77.89
56374;BME280;58212;47.034;7.376;2023-09-12T02:37:37;95154.72;;;17.76;77.77
56374;BME280;58212;47.034;7.376;2023-09-12T02:40:05;95154.94;;;17.79;77.58
56374;BME280;58212;47.034;7.376;2023-09-12T02:42:32;95150.31;;;17.85;77.23
56374;BME280;58212;47.034;7.376;2023-09-12T02:44:59;95145.44;;;17.92;77.35
56374;BME280;58212;47.034;7.376;2023-09-12T02:47:26;95150.13;;;17.76;77.42
56374;BME280;58212;47.034;7.376;2023-09-12T02:49:53;95145.34;;;17.73;77.91
56374;BME280;58212;47.034;7.376;2023-09-12T02:52:21;95145.09;;;17.70;77.96
56374;BME280;58212;47.034;7.376;2023-09-12T02:54:48;95146.75;;;17.66;78.18
56374;BME280;58212;47.034;7.376;2023-09-12T02:57:15;95149.50;;;17.61;78.41
56374;BME280;58212;47.034;7.376;2023-09-12T02:59:42;95126.78;;;17.53;78.40
56374;BME280;58212;47.034;7.376;2023-09-12T03:02:08;95135.31;;;17.55;78.50
56374;BME280;58212;47.034;7.376;2023-09-12T03:04:35;95139.63;;;17.51;78.32
56374;BME280;58212;47.034;7.376;2023-09-12T03:07:02;95141.31;;;17.42;78.51
56374;BME280;58212;47.034;7.376;2023-09-12T03:09:31;95141.31;;;17.42;78.78
56374;BME280;58212;47.034;7.376;2023-09-12T03:11:57;95137.88;;;17.36;78.97
56374;BME280;58212;47.034;7.376;2023-09-12T03:14:24;95137.06;;;17.36;78.91
56374;BME280;58212;47.034;7.376;2023-09-12T03:16:54;95135.50;;;17.35;78.72
56374;BME280;58212;47.034;7.376;2023-09-12T03:19:21;95126.38;;;17.36;78.82
56374;BME280;58212;47.034;7.376;2023-09-12T03:21:48;95125.31;;;17.37;78.67
56374;BME280;58212;47.034;7.376;2023-09-12T03:24:15;95116.22;;;17.38;78.65
56374;BME280;58212;47.034;7.376;2023-09-12T03:26:45;95114.59;;;17.37;78.41
56374;BME280;58212;47.034;7.376;2023-09-12T03:29:11;95118.88;;;17.38;78.73
56374;BME280;58212;47.034;7.376;2023-09-12T03:31:38;95111.94;;;17.37;78.32
56374;BME280;58212;47.034;7.376;2023-09-12T03:34:06;95114.63;;;17.32;78.53
56374;BME280;58212;47.034;7.376;2023-09-12T03:36:32;95115.41;;;17.37;78.66
56374;BME280;58212;47.034;7.376;2023-09-12T03:38:59;95116.72;;;17.40;78.68
56374;BME280;58212;47.034;7.376;2023-09-12T03:41:26;95110.38;;;17.31;78.77
56374;BME280;58212;47.034;7.376;2023-09-12T03:43:56;95108.50;;;17.31;78.79
56374;BME280;58212;47.034;7.376;2023-09-12T03:46:22;95106.38;;;17.28;78.67
56374;BME280;58212;47.034;7.376;2023-09-12T03:48:50;95109.84;;;17.29;78.98
56374;BME280;58212;47.034;7.376;2023-09-12T03:51:17;95121.41;;;17.24;78.79
56374;BME280;58212;47.034;7.376;2023-09-12T03:53:45;95113.94;;;17.21;78.85
56374;BME280;58212;47.034;7.376;2023-09-12T03:56:13;95119.25;;;17.26;78.47
56374;BME280;58212;47.034;7.376;2023-09-12T03:58:41;95130.28;;;17.20;78.83
56374;BME280;58212;47.034;7.376;2023-09-12T04:01:10;95132.38;;;17.23;78.58
56374;BME280;58212;47.034;7.376;2023-09-12T04:03:37;95129.69;;;17.23;78.81
56374;BME280;58212;47.034;7.376;2023-09-12T04:06:04;95131.81;;;17.26;78.86
56374;BME280;58212;47.034;7.376;2023-09-12T04:08:31;95133.41;;;17.27;78.77
56374;BME280;58212;47.034;7.376;2023-09-12T04:10:58;95136.56;;;17.34;78.82
56374;BME280;58212;47.034;7.376;2023-09-12T04:13:25;95138.19;;;17.30;78.44
56374;BME280;58212;47.034;7.376;2023-09-12T04:15:52;95140.91;;;17.25;78.92
56374;BME280;58212;47.034;7.376;2023-09-12T04:18:20;95133.63;;;17.35;78.86
56374;BME280;58212;47.034;7.376;2023-09-12T04:20:47;95134.88;;;17.43;78.96
56374;BME280;58212;47.034;7.376;2023-09-12T04:23:14;95139.63;;;17.51;78.72
56374;BME280;58212;47.034;7.376;2023-09-12T04:25:42;95134.81;;;17.53;79.38
56374;BME280;58212;47.034;7.376;2023-09-12T04:28:08;95134.81;;;17.53;79.11
56374;BME280;58212;47.034;7.376;2023-09-12T04:30:36;95130.84;;;17.45;79.24
56374;BME280;58212;47.034;7.376;2023-09-12T04:33:05;95137.59;;;17.38;79.71
56374;BME280;58212;47.034;7.376;2023-09-12T04:35:35;95140.56;;;17.36;79.53
56374;BME280;58212;47.034;7.376;2023-09-12T04:38:02;95136.53;;;17.39;79.85
56374;BME280;58212;47.034;7.376;2023-09-12T04:40:29;95138.13;;;17.40;79.61
56374;BME280;58212;47.034;7.376;2023-09-12T04:42:56;95139.38;;;17.47;79.42
56374;BME280;58212;47.034;7.376;2023-09-12T04:45:24;95139.97;;;17.44;79.72
56374;BME280;58212;47.034;7.376;2023-09-12T04:47:51;95143.44;;;17.45;79.18
56374;BME280;58212;47.034;7.376;2023-09-12T04:50:18;95136.69;;;17.52;79.23
56374;BME280;58212;47.034;7.376;2023-09-12T04:52:46;95139.59;;;17.56;79.22
56374;BME280;58212;47.034;7.376;2023-09-12T04:55:12;95137.53;;;17.48;79.17
56374;BME280;58212;47.034;7.376;2023-09-12T04:57:39;95142.06;;;17.47;79.40
56374;BME280;58212;47.034;7.376;2023-09-12T05:00:09;95139.63;;;17.51;79.13
56374;BME280;58212;47.034;7.376;2023-09-12T05:02:36;95138.59;;;17.47;79.06
56374;BME280;58212;47.034;7.376;2023-09-12T05:05:04;95134.25;;;17.56;78.73
56374;BME280;58212;47.034;7.376;2023-09-12T05:07:31;95137.25;;;17.49;79.05
56374;BME280;58212;47.034;7.376;2023-09-12T05:10:02;95135.38;;;17.50;79.08
56374;BME280;58212;47.034;7.376;2023-09-12T05:12:29;95144.47;;;17.49;79.00
56374;BME280;58212;47.034;7.376;2023-09-12T05:14:56;95140.66;;;17.60;78.43
56374;BME280;58212;47.034;7.376;2023-09-12T05:17:23;95139.06;;;17.54;78.72
56374;BME280;58212;47.034;7.376;2023-09-12T05:19:50;95136.09;;;17.61;78.41
56374;BME280;58212;47.034;7.376;2023-09-12T05:22:17;95129.25;;;17.78;77.68
56374;BME280;58212;47.034;7.376;2023-09-12T05:24:43;95131.97;;;17.73;78.00
56374;BME280;58212;47.034;7.376;2023-09-12T05:27:14;95136.03;;;17.66;78.19
56374;BME280;58212;47.034;7.376;2023-09-12T05:29:41;95136.38;;;17.54;78.55
56374;BME280;58212;47.034;7.376;2023-09-12T05:32:08;95137.00;;;17.46;79.17
56374;BME280;58212;47.034;7.376;2023-09-12T05:34:35;95135.66;;;17.48;79.22
56374;BME280;58212;47.034;7.376;2023-09-12T05:37:01;95141.78;;;17.49;79.23
56374;BME280;58212;47.034;7.376;2023-09-12T05:39:28;95133.69;;;17.59;79.01
56374;BME280;58212;47.034;7.376;2023-09-12T05:41:55;95133.31;;;17.71;78.58
56374;BME280;58212;47.034;7.376;2023-09-12T05:44:25;95136.94;;;17.85;78.09
56374;BME280;58212;47.034;7.376;2023-09-12T05:46:52;95137.63;;;17.95;77.40
56374;BME280;58212;47.034;7.376;2023-09-12T05:49:19;95135.41;;;18.02;77.40
56374;BME280;58212;47.034;7.376;2023-09-12T05:51:46;95135.94;;;18.04;77.06
56374;BME280;58212;47.034;7.376;2023-09-12T05:54:13;95134.38;;;17.98;77.47
56374;BME280;58212;47.034;7.376;2023-09-12T05:56:40;95133.81;;;18.01;77.35
56374;BME280;58212;47.034;7.376;2023-09-12T05:59:07;95143.44;;;18.02;77.35
56374;BME280;58212;47.034;7.376;2023-09-12T06:01:36;95142.38;;;18.03;77.58
56374;BME280;58212;47.034;7.376;2023-09-12T06:04:04;95142.03;;;18.10;77.50
56374;BME280;58212;47.034;7.376;2023-09-12T06:06:32;95147.31;;;18.15;77.39
56374;BME280;58212;47.034;7.376;2023-09-12T06:08:58;95147.56;;;18.19;77.35
56374;BME280;58212;47.034;7.376;2023-09-12T06:11:25;95145.91;;;18.23;77.51
56374;BME280;58212;47.034;7.376;2023-09-12T06:13:52;95148.47;;;18.33;77.46
56374;BME280;58212;47.034;7.376;2023-09-12T06:16:19;95136.31;;;18.40;77.27
56374;BME280;58212;47.034;7.376;2023-09-12T06:18:49;95140.81;;;18.45;77.27
56374;BME280;58212;47.034;7.376;2023-09-12T06:21:15;95148.09;;;18.39;77.52
56374;BME280;58212;47.034;7.376;2023-09-12T06:23:42;95152.22;;;18.32;77.64
56374;BME280;58212;47.034;7.376;2023-09-12T06:26:09;95150.69;;;18.26;77.62
56374;BME280;58212;47.034;7.376;2023-09-12T06:28:36;95150.34;;;18.32;77.68
56374;BME280;58212;47.034;7.376;2023-09-12T06:31:02;95148.91;;;18.16;78.22
56374;BME280;58212;47.034;7.376;2023-09-12T06:33:29;95154.41;;;18.30;77.96
56374;BME280;58212;47.034;7.376;2023-09-12T06:35:57;95156.28;;;18.29;78.21
56374;BME280;58212;47.034;7.376;2023-09-12T06:38:24;95147.16;;;18.30;77.89
56374;BME280;58212;47.034;7.376;2023-09-12T06:40:51;95150.50;;;18.41;77.32
56374;BME280;58212;47.034;7.376;2023-09-12T06:43:17;95151.53;;;18.45;77.56
56374;BME280;58212;47.034;7.376;2023-09-12T06:45:45;95157.63;;;18.50;77.28
56374;BME280;58212;47.034;7.376;2023-09-12T06:48:11;95158.72;;;18.92;76.25
56374;BME280;58212;47.034;7.376;2023-09-12T06:50:38;95157.22;;;19.88;72.76
56374;BME280;58212;47.034;7.376;2023-09-12T06:53:08;95149.16;;;21.33;67.65
56374;BME280;58212;47.034;7.376;2023-09-12T06:55:35;95143.47;;;22.01;65.13
56374;BME280;58212;47.034;7.376;2023-09-12T06:58:02;95144.34;;;22.67;63.31
56374;BME280;58212;47.034;7.376;2023-09-12T07:00:29;95151.09;;;23.12;61.58
56374;BME280;58212;47.034;7.376;2023-09-12T07:02:57;95155.13;;;23.66;60.20
56374;BME280;58212;47.034;7.376;2023-09-12T07:05:23;95154.47;;;23.52;59.80
56374;BME280;58212;47.034;7.376;2023-09-12T07:07:51;95153.44;;;24.17;56.85
56374;BME280;58212;47.034;7.376;2023-09-12T07:10:19;95146.19;;;23.31;58.49
56374;BME280;58212;47.034;7.376;2023-09-12T07:12:45;95147.78;;;23.75;58.10
56374;BME280;58212;47.034;7.376;2023-09-12T07:15:12;95140.56;;;24.52;55.67
56374;BME280;58212;47.034;7.376;2023-09-12T07:17:39;95143.25;;;24.90;54.50
56374;BME280;58212;47.034;7.376;2023-09-12T07:20:06;95149.16;;;23.99;57.04
56374;BME280;58212;47.034;7.376;2023-09-12T07:22:37;95162.59;;;22.22;63.32
56374;BME280;58212;47.034;7.376;2023-09-12T07:25:04;95154.34;;;22.66;62.77
56374;BME280;58212;47.034;7.376;2023-09-12T07:27:32;95146.69;;;23.25;60.63
56374;BME280;58212;47.034;7.376;2023-09-12T07:29:59;95150.44;;;22.33;63.06
56374;BME280;58212;47.034;7.376;2023-09-12T07:32:27;95153.84;;;21.41;65.17
56374;BME280;58212;47.034;7.376;2023-09-12T07:34:54;95154.38;;;21.29;65.78
56374;BME280;58212;47.034;7.376;2023-09-12T07:37:20;95155.59;;;21.10;66.85
56374;BME280;58212;47.034;7.376;2023-09-12T07:39:47;95163.78;;;21.18;66.38
56374;BME280;58212;47.034;7.376;2023-09-12T07:42:14;95157.94;;;21.61;65.78
56374;BME280;58212;47.034;7.376;2023-09-12T07:44:42;95151.63;;;21.65;65.42
56374;BME280;58212;47.034;7.376;2023-09-12T07:47:08;95162.97;;;21.54;66.87
56374;BME280;58212;47.034;7.376;2023-09-12T07:49:35;95162.91;;;21.45;66.11
56374;BME280;58212;47.034;7.376;2023-09-12T07:52:02;95157.50;;;21.45;66.89
56374;BME280;58212;47.034;7.376;2023-09-12T07:54:29;95167.03;;;21.51;66.97
56374;BME280;58212;47.034;7.376;2023-09-12T07:56:57;95162.44;;;21.74;65.86
56374;BME280;58212;47.034;7.376;2023-09-12T07:59:24;95164.72;;;21.58;66.62
56374;BME280;58212;47.034;7.376;2023-09-12T08:01:53;95170.34;;;21.48;67.97
56374;BME280;58212;47.034;7.376;2023-09-12T08:04:19;95168.81;;;21.56;66.90
56374;BME280;58212;47.034;7.376;2023-09-12T08:06:46;95178.72;;;21.47;68.21
56374;BME280;58212;47.034;7.376;2023-09-12T08:09:13;95172.56;;;21.46;67.09
56374;BME280;58212;47.034;7.376;2023-09-12T08:11:40;95172.91;;;21.31;67.08
56374;BME280;58212;47.034;7.376;2023-09-12T08:14:07;95184.28;;;21.50;67.41
56374;BME280;58212;47.034;7.376;2023-09-12T08:16:34;95185.28;;;21.54;67.13
56374;BME280;58212;47.034;7.376;2023-09-12T08:19:02;95189.56;;;21.55;66.75
56374;BME280;58212;47.034;7.376;2023-09-12T08:21:29;95177.84;;;21.96;65.25
56374;BME280;58212;47.034;7.376;2023-09-12T08:23:56;95181.56;;;21.86;64.66
56374;BME280;58212;47.034;7.376;2023-09-12T08:26:22;95181.84;;;22.37;63.42
56374;BME280;58212;47.034;7.376;2023-09-12T08:28:49;95180.19;;;22.19;65.15
56374;BME280;58212;47.034;7.376;2023-09-12T08:31:16;95185.00;;;21.78;65.13
56374;BME280;58212;47.034;7.376;2023-09-12T08:33:43;95188.03;;;21.85;65.85
56374;BME280;58212;47.034;7.376;2023-09-12T08:36:12;95195.81;;;21.86;65.26
56374;BME280;58212;47.034;7.376;2023-09-12T08:38:39;95190.41;;;22.09;65.75
56374;BME280;58212;47.034;7.376;2023-09-12T08:41:05;95190.31;;;21.91;65.97
56374;BME280;58212;47.034;7.376;2023-09-12T08:43:32;95196.59;;;22.09;65.40
56374;BME280;58212;47.034;7.376;2023-09-12T08:45:59;95191.97;;;22.32;64.44
56374;BME280;58212;47.034;7.376;2023-09-12T08:48:27;95180.09;;;22.72;63.73
56374;BME280;58212;47.034;7.376;2023-09-12T08:50:54;95180.50;;;22.57;63.95
56374;BME280;58212;47.034;7.376;2023-09-12T08:53:22;95186.00;;;22.74;63.27
56374;BME280;58212;47.034;7.376;2023-09-12T08:55:49;95187.63;;;22.93;63.38
56374;BME280;58212;47.034;7.376;2023-09-12T08:58:18;95180.75;;;22.78;64.05
56374;BME280;58212;47.034;7.376;2023-09-12T09:00:46;95174.28;;;22.57;64.17
56374;BME280;58212;47.034;7.376;2023-09-12T09:03:13;95177.59;;;22.45;64.23
56374;BME280;58212;47.034;7.376;2023-09-12T09:05:42;95178.84;;;22.39;64.21
56374;BME280;58212;47.034;7.376;2023-09-12T09:08:09;95176.66;;;22.50;64.00
56374;BME280;58212;47.034;7.376;2023-09-12T09:10:37;95174.75;;;22.42;63.54
56374;BME280;58212;47.034;7.376;2023-09-12T09:13:04;95173.59;;;22.73;63.63
56374;BME280;58212;47.034;7.376;2023-09-12T09:15:31;95180.19;;;23.07;62.60
56374;BME280;58212;47.034;7.376;2023-09-12T09:18:01;95168.28;;;23.25;61.99
56374;BME280;58212;47.034;7.376;2023-09-12T09:20:30;95173.06;;;23.36;61.35
56374;BME280;58212;47.034;7.376;2023-09-12T09:23:02;95166.88;;;23.53;60.98
56374;BME280;58212;47.034;7.376;2023-09-12T09:25:31;95168.63;;;23.58;60.67
56374;BME280;58212;47.034;7.376;2023-09-12T09:28:02;95162.25;;;23.88;60.27
56374;BME280;58212;47.034;7.376;2023-09-12T09:30:40;95163.50;;;23.91;59.69
56374;BME280;58212;47.034;7.376;2023-09-12T09:33:07;95160.31;;;23.89;59.32
56374;BME280;58212;47.034;7.376;2023-09-12T09:35:34;95165.09;;;23.74;60.24
56374;BME280;58212;47.034;7.376;2023-09-12T09:38:01;95164.75;;;24.02;59.00
56374;BME280;58212;47.034;7.376;2023-09-12T09:40:29;95158.06;;;24.16;57.84
56374;BME280;58212;47.034;7.376;2023-09-12T09:43:00;95157.44;;;23.85;58.34
56374;BME280;58212;47.034;7.376;2023-09-12T09:45:27;95152.72;;;23.73;59.43
56374;BME280;58212;47.034;7.376;2023-09-12T09:47:56;95144.84;;;24.15;58.33
56374;BME280;58212;47.034;7.376;2023-09-12T09:50:23;95150.09;;;24.20;56.93
56374;BME280;58212;47.034;7.376;2023-09-12T09:52:54;95156.13;;;24.08;56.76
56374;BME280;58212;47.034;7.376;2023-09-12T09:55:21;95156.19;;;23.91;57.05
56374;BME280;58212;47.034;7.376;2023-09-12T09:57:48;95163.78;;;24.06;56.01
56374;BME280;58212;47.034;7.376;2023-09-12T10:00:20;95152.16;;;24.06;56.09
56374;BME280;58212;47.034;7.376;2023-09-12T10:02:48;95152.03;;;24.49;55.07
56374;BME280;58212;47.034;7.376;2023-09-12T10:05:16;95145.97;;;24.81;54.80
56374;BME280;58212;47.034;7.376;2023-09-12T10:07:46;95147.44;;;25.28;52.35
56374;BME280;58212;47.034;7.376;2023-09-12T10:10:14;95143.59;;;25.29;52.29
56374;BME280;58212;47.034;7.376;2023-09-12T10:12:48;95150.47;;;25.27;52.52
56374;BME280;58212;47.034;7.376;2023-09-12T10:15:19;95153.50;;;24.75;52.87
56374;BME280;58212;47.034;7.376;2023-09-12T10:17:52;95149.41;;;24.31;53.31
56374;BME280;58212;47.034;7.376;2023-09-12T10:20:25;95144.22;;;24.09;53.54
56374;BME280;58212;47.034;7.376;2023-09-12T10:22:58;95136.88;;;24.18;54.01
56374;BME280;58212;47.034;7.376;2023-09-12T10:25:28;95132.53;;;24.35;54.27
56374;BME280;58212;47.034;7.376;2023-09-12T10:27:55;95134.06;;;24.44;53.17
56374;BME280;58212;47.034;7.376;2023-09-12T10:30:24;95134.03;;;24.53;53.20
56374;BME280;58212;47.034;7.376;2023-09-12T10:32:52;95138.28;;;24.62;52.72
56374;BME280;58212;47.034;7.376;2023-09-12T10:35:19;95133.66;;;24.92;53.12
56374;BME280;58212;47.034;7.376;2023-09-12T10:37:47;95124.25;;;24.98;53.30
56374;BME280;58212;47.034;7.376;2023-09-12T10:40:16;95115.50;;;25.13;53.29
56374;BME280;58212;47.034;7.376;2023-09-12T10:42:44;95116.06;;;25.27;52.69
56374;BME280;58212;47.034;7.376;2023-09-12T10:45:12;95122.78;;;25.42;51.70
56374;BME280;58212;47.034;7.376;2023-09-12T10:47:40;95123.47;;;25.60;51.14
56374;BME280;58212;47.034;7.376;2023-09-12T10:50:08;95127.66;;;25.28;52.15
56374;BME280;58212;47.034;7.376;2023-09-12T10:52:35;95119.91;;;25.06;52.52
56374;BME280;58212;47.034;7.376;2023-09-12T10:55:06;95113.25;;;25.36;52.30
56374;BME280;58212;47.034;7.376;2023-09-12T10:57:33;95116.25;;;25.22;52.01
56374;BME280;58212;47.034;7.376;2023-09-12T11:00:13;95116.81;;;25.69;51.20
56374;BME280;58212;47.034;7.376;2023-09-12T11:02:41;95116.25;;;25.76;50.88
56374;BME280;58212;47.034;7.376;2023-09-12T11:05:36;95119.03;;;25.14;51.74
56374;BME280;58212;47.034;7.376;2023-09-12T11:08:03;95119.47;;;25.37;52.18
56374;BME280;58212;47.034;7.376;2023-09-12T11:10:30;95115.06;;;25.53;51.67
56374;BME280;58212;47.034;7.376;2023-09-12T11:12:58;95114.31;;;25.44;50.95
56374;BME280;58212;47.034;7.376;2023-09-12T11:15:26;95107.69;;;25.20;52.19
56374;BME280;58212;47.034;7.376;2023-09-12T11:18:06;95115.59;;;25.25;52.18
56374;BME280;58212;47.034;7.376;2023-09-12T11:20:49;95114.66;;;25.21;52.14
56374;BME280;58212;47.034;7.376;2023-09-12T11:23:17;95117.59;;;25.16;52.16
56374;BME280;58212;47.034;7.376;2023-09-12T11:25:44;95117.25;;;25.39;49.87
56374;BME280;58212;47.034;7.376;2023-09-12T11:28:11;95120.28;;;25.37;51.50
56374;BME280;58212;47.034;7.376;2023-09-12T11:30:54;95112.75;;;25.63;50.81
56374;BME280;58212;47.034;7.376;2023-09-12T11:33:23;95107.72;;;25.86;51.00
56374;BME280;58212;47.034;7.376;2023-09-12T11:35:52;95108.16;;;26.21;49.36
56374;BME280;58212;47.034;7.376;2023-09-12T11:38:27;95115.41;;;26.41;48.30
56374;BME280;58212;47.034;7.376;2023-09-12T11:40:56;95111.69;;;26.70;46.83
56374;BME280;58212;47.034;7.376;2023-09-12T11:43:24;95105.81;;;26.56;46.85
56374;BME280;58212;47.034;7.376;2023-09-12T11:45:52;95101.25;;;26.72;46.64
56374;BME280;58212;47.034;7.376;2023-09-12T11:48:20;95098.56;;;26.48;47.37
56374;BME280;58212;47.034;7.376;2023-09-12T11:50:53;95101.78;;;26.05;48.51
56374;BME280;58212;47.034;7.376;2023-09-12T11:53:22;95104.00;;;26.48;48.73
56374;BME280;58212;47.034;7.376;2023-09-12T11:55:52;95098.66;;;26.27;48.23
56374;BME280;58212;47.034;7.376;2023-09-12T11:58:20;95097.06;;;26.38;48.63
56374;BME280;58212;47.034;7.376;2023-09-12T12:00:49;95098.34;;;26.41;48.08
56374;BME280;58212;47.034;7.376;2023-09-12T12:03:17;95096.97;;;26.71;48.48
56374;BME280;58212;47.034;7.376;2023-09-12T12:05:44;95097.88;;;26.63;48.21
56374;BME280;58212;47.034;7.376;2023-09-12T12:08:14;95095.72;;;26.56;47.51
56374;BME280;58212;47.034;7.376;2023-09-12T12:10:41;95094.47;;;26.78;47.99
56374;BME280;58212;47.034;7.376;2023-09-12T12:13:11;95095.00;;;27.08;46.33
56374;BME280;58212;47.034;7.376;2023-09-12T12:15:38;95088.63;;;27.16;45.00
56374;BME280;58212;47.034;7.376;2023-09-12T12:18:05;95095.59;;;27.01;45.74
56374;BME280;58212;47.034;7.376;2023-09-12T12:20:33;95092.81;;;26.86;46.01
56374;BME280;58212;47.034;7.376;2023-09-12T12:23:01;95094.00;;;26.64;45.76
56374;BME280;58212;47.034;7.376;2023-09-12T12:25:32;95092.63;;;27.06;44.56
56374;BME280;58212;47.034;7.376;2023-09-12T12:27:59;95091.53;;;27.47;44.73
56374;BME280;58212;47.034;7.376;2023-09-12T12:30:30;95081.66;;;27.43;43.30
56374;BME280;58212;47.034;7.376;2023-09-12T12:32:57;95083.66;;;27.18;45.00
56374;BME280;58212;47.034;7.376;2023-09-12T12:35:24;95084.03;;;27.44;44.32
56374;BME280;58212;47.034;7.376;2023-09-12T12:37:54;95088.91;;;27.39;44.88
56374;BME280;58212;47.034;7.376;2023-09-12T12:40:20;95077.75;;;27.56;45.46
56374;BME280;58212;47.034;7.376;2023-09-12T12:42:48;95075.50;;;27.18;46.58
56374;BME280;58212;47.034;7.376;2023-09-12T12:45:17;95067.00;;;27.19;47.28
56374;BME280;58212;47.034;7.376;2023-09-12T12:47:44;95076.66;;;27.05;45.30
56374;BME280;58212;47.034;7.376;2023-09-12T12:50:11;95072.69;;;27.14;44.27
56374;BME280;58212;47.034;7.376;2023-09-12T12:52:38;95083.81;;;27.37;42.63
56374;BME280;58212;47.034;7.376;2023-09-12T12:55:06;95077.94;;;27.47;43.93
56374;BME280;58212;47.034;7.376;2023-09-12T12:57:36;95077.31;;;27.54;44.37
56374;BME280;58212;47.034;7.376;2023-09-12T13:00:07;95082.91;;;27.45;43.49
56374;BME280;58212;47.034;7.376;2023-09-12T13:02:36;95068.06;;;27.15;44.14
56374;BME280;58212;47.034;7.376;2023-09-12T13:05:04;95071.97;;;27.57;44.31